Malton, United Kingdom
Current Conditions -  °F | °C
As of 8:50 AM on Friday 24 Oct 2014 (Local Time) from EGXU Reporting Station
Light Rain Light Rain  
Wind Chill: 12°   Ceiling: 4500
Heat Index: 12°   Visibility: 6mi
Dew Point: 10°   Wind: 8mph
Humidity: 88%   Direction: 210°SSW
Pressure: 29.85"   Gusts: NA
Location:  54.13°N, 0.8°W
Report Text: EGXU 240750Z 21007KT 9999 -RA FEW015 BKN045 12/10 Q1011 BLU TEMPO SCT020 WHT
Loading
Personal Weather Stations






























Interactive Weather Map
Tropical Storm Tracking
New forecast layout! Learn more

10-Day Weather Forecast

Advertisements
Track Severe Weather on mobile